PA70 weather

Fetters Construction Airport
Downingtown, Pennsylvania, United States

Public forecast

Using degrees Fahrenheit for public forecast. Weather courtesy of forecast.io.

Closest aviation weather report (METAR) to Fetters Construction Airport

Closest report is Brandywine Regional Airport, 8.5 nm (15.8 km) SE. Retrieved 2020/08/06 00:55 UTC (7 minutes ago):

KOQN 060055Z AUTO 00000KT 10SM CLR 25/17 A3006 RMK AO2

Closest aviation forecast (TAF) to Fetters Construction Airport

Closest forecast is Reading Regional Carl A Spaatz Field, 20.8 nm (38.5 km) NW. Retrieved 2020-08-06 00:30 UTC (32 minutes ago):

TAF KRDG 052328Z 0600/0624 25006KT P6SM FEW060 FM060300 VRB02KT P6SM SCT060 BKN250 FM061100 04003KT P6SM -SHRA VCTS SCT025CB OVC045 FM061600 08005KT P6SM VCSH BKN040 FM062300 13005KT P6SM BKN030